createdAt,value
2023-04-05T00:01:13.828Z,73.37
2023-04-05T00:03:41.183Z,74.65
2023-04-05T00:06:08.185Z,74.50
2023-04-05T00:08:34.917Z,74.33
2023-04-05T00:11:01.534Z,75.17
2023-04-05T00:13:28.131Z,75.46
2023-04-05T00:15:57.973Z,74.75
2023-04-05T00:18:25.699Z,74.91
2023-04-05T00:20:53.061Z,75.30
2023-04-05T00:23:21.443Z,76.80
2023-04-05T00:25:48.612Z,75.23
2023-04-05T00:28:15.719Z,75.26
2023-04-05T00:30:42.662Z,75.64
2023-04-05T00:33:09.590Z,76.32
2023-04-05T00:35:36.388Z,76.76
2023-04-05T00:38:02.983Z,76.02
2023-04-05T00:40:29.617Z,76.73
2023-04-05T00:42:56.245Z,76.50
2023-04-05T00:45:22.951Z,77.52
2023-04-05T00:47:49.939Z,77.49
2023-04-05T00:50:16.785Z,78.53
2023-04-05T00:52:44.062Z,78.33
2023-04-05T00:55:11.234Z,77.72
2023-04-05T00:57:39.333Z,76.04
2023-04-05T01:00:09.556Z,77.06
2023-04-05T01:02:46.985Z,77.10
2023-04-05T01:05:25.096Z,77.42
2023-04-05T01:08:08.155Z,77.71
2023-04-05T01:10:39.488Z,76.80
2023-04-05T01:13:06.733Z,77.81
2023-04-05T01:15:33.411Z,77.68
2023-04-05T01:18:02.296Z,77.04
2023-04-05T01:20:34.536Z,77.64
2023-04-05T01:23:31.093Z,77.82
2023-04-05T01:26:15.975Z,79.21
2023-04-05T01:28:45.882Z,78.34
2023-04-05T01:31:26.525Z,78.56
2023-04-05T01:34:02.354Z,78.93
2023-04-05T01:36:40.979Z,78.54
2023-04-05T01:39:11.827Z,79.33
2023-04-05T01:41:40.414Z,79.62
2023-04-05T01:44:07.696Z,79.68
2023-04-05T01:46:34.565Z,79.20
2023-04-05T01:49:01.254Z,79.02
2023-04-05T01:51:28.107Z,78.88
2023-04-05T01:53:54.910Z,78.64
2023-04-05T01:56:21.555Z,79.24
2023-04-05T01:58:48.292Z,79.06
2023-04-05T02:01:15.118Z,79.27
2023-04-05T02:03:42.107Z,79.22
2023-04-05T02:06:08.883Z,80.70
2023-04-05T02:08:35.615Z,81.11
2023-04-05T02:11:02.276Z,80.66
2023-04-05T02:13:28.932Z,80.57
2023-04-05T02:15:55.595Z,79.98
2023-04-05T02:18:22.596Z,80.10
2023-04-05T02:20:50.770Z,80.65
2023-04-05T02:23:20.172Z,80.79
2023-04-05T02:25:47.182Z,83.16
2023-04-05T02:28:13.781Z,83.40
2023-04-05T02:30:40.635Z,82.97
2023-04-05T02:33:09.708Z,82.04
2023-04-05T02:35:36.665Z,81.05
2023-04-05T02:38:04.877Z,80.13
2023-04-05T02:40:32.345Z,80.63
2023-04-05T02:42:59.035Z,80.89
2023-04-05T02:45:27.909Z,81.02
2023-04-05T02:47:55.537Z,80.80
2023-04-05T02:50:23.567Z,80.30
2023-04-05T02:52:50.773Z,81.03
2023-04-05T02:55:17.803Z,81.08
2023-04-05T02:57:46.642Z,81.55
2023-04-05T03:00:14.027Z,82.09
2023-04-05T03:02:40.764Z,82.51
2023-04-05T03:05:08.205Z,81.69
2023-04-05T03:07:35.589Z,82.67
2023-04-05T03:10:02.766Z,82.97
2023-04-05T03:12:29.383Z,82.18
2023-04-05T03:14:56.072Z,82.97
2023-04-05T03:17:22.828Z,83.41
2023-04-05T03:19:49.514Z,82.18
2023-04-05T03:22:16.246Z,81.81
2023-04-05T03:24:42.969Z,81.95
2023-04-05T03:27:09.628Z,82.62
2023-04-05T03:29:36.225Z,84.17
2023-04-05T03:32:02.889Z,83.81
2023-04-05T03:34:29.546Z,84.37
2023-04-05T03:36:56.259Z,83.73
2023-04-05T03:39:22.929Z,83.76
2023-04-05T03:41:49.562Z,83.23
2023-04-05T03:44:16.300Z,84.67
2023-04-05T03:46:44.161Z,84.15
2023-04-05T03:49:10.931Z,82.90
2023-04-05T03:51:37.600Z,82.75
2023-04-05T03:54:05.381Z,83.31
2023-04-05T03:56:33.065Z,82.57
2023-04-05T03:58:59.772Z,82.40
2023-04-05T04:01:26.466Z,81.82
2023-04-05T04:03:53.098Z,83.07
2023-04-05T04:06:19.853Z,82.68
2023-04-05T04:08:46.555Z,83.19
2023-04-05T04:11:13.347Z,84.56
2023-04-05T04:13:39.966Z,82.48
2023-04-05T04:16:06.708Z,82.36
2023-04-05T04:18:33.629Z,83.27
2023-04-05T04:21:06.953Z,83.67
2023-04-05T04:23:34.688Z,84.56
2023-04-05T04:26:01.868Z,84.18
2023-04-05T04:28:29.316Z,84.42
2023-04-05T04:30:56.006Z,83.87
2023-04-05T04:33:22.658Z,84.10
2023-04-05T04:35:49.371Z,83.89
2023-04-05T04:38:18.996Z,83.96
2023-04-05T04:40:50.958Z,84.13
2023-04-05T04:43:17.792Z,84.12
2023-04-05T04:45:48.269Z,84.57
2023-04-05T04:48:16.899Z,84.93
2023-04-05T04:50:45.448Z,84.75
2023-04-05T04:53:13.801Z,84.96
2023-04-05T04:55:43.606Z,84.07
2023-04-05T04:58:12.145Z,85.31
2023-04-05T05:00:41.016Z,84.50
2023-04-05T05:03:08.679Z,84.41
2023-04-05T05:05:35.497Z,85.81
2023-04-05T05:08:02.213Z,86.15
2023-04-05T05:10:28.942Z,86.85
2023-04-05T05:12:55.706Z,85.53
2023-04-05T05:15:22.458Z,86.19
2023-04-05T05:17:53.181Z,86.71
2023-04-05T05:20:20.055Z,86.62
2023-04-05T05:22:46.716Z,86.63
2023-04-05T05:25:13.523Z,87.08
2023-04-05T05:27:40.433Z,86.97
2023-04-05T05:30:07.575Z,86.35
2023-04-05T05:32:34.233Z,86.61
2023-04-05T05:35:01.059Z,87.27
2023-04-05T05:37:32.266Z,86.58
2023-04-05T05:39:59.621Z,87.03
2023-04-05T05:42:27.400Z,87.03
2023-04-05T05:44:54.190Z,87.05
2023-04-05T05:47:21.084Z,86.03
2023-04-05T05:49:49.706Z,86.17
2023-04-05T05:52:17.027Z,86.02
2023-04-05T05:54:43.838Z,86.53
2023-04-05T05:57:10.468Z,86.82
2023-04-05T05:59:37.257Z,88.33
2023-04-05T06:02:04.125Z,87.45
2023-04-05T06:04:30.907Z,86.37
2023-04-05T06:06:58.243Z,86.32
2023-04-05T06:09:25.657Z,86.80
2023-04-05T06:11:56.719Z,86.91
2023-04-05T06:14:25.228Z,87.14
2023-04-05T06:16:52.232Z,87.69
2023-04-05T06:19:19.009Z,87.23
2023-04-05T06:21:45.829Z,87.83
2023-04-05T06:24:12.572Z,87.44
2023-04-05T06:26:39.288Z,87.12
2023-04-05T06:29:06.331Z,87.37
2023-04-05T06:31:54.494Z,88.15
2023-04-05T06:34:21.346Z,87.90
2023-04-05T06:36:48.022Z,88.06
2023-04-05T06:39:14.901Z,87.40
2023-04-05T06:41:41.637Z,87.02
2023-04-05T06:44:09.161Z,87.60
2023-04-05T06:46:35.929Z,87.01
2023-04-05T06:49:04.095Z,86.14
2023-04-05T06:51:30.968Z,85.70
2023-04-05T06:53:57.691Z,85.37
2023-04-05T06:56:24.377Z,84.76
2023-04-05T06:58:51.471Z,84.67
2023-04-05T07:01:18.675Z,84.42
2023-04-05T07:03:45.581Z,83.97
2023-04-05T07:06:12.720Z,83.40
2023-04-05T07:08:39.491Z,83.36
2023-04-05T07:11:06.208Z,83.61
2023-04-05T07:13:32.847Z,83.32
2023-04-05T07:16:01.536Z,84.48
2023-04-05T07:18:30.118Z,83.27
2023-04-05T07:21:00.876Z,83.31
2023-04-05T07:23:28.705Z,82.73
2023-04-05T07:26:04.488Z,78.99
2023-04-05T07:28:33.322Z,77.58
2023-04-05T07:31:00.052Z,78.75
2023-04-05T07:33:27.228Z,78.62
2023-04-05T07:35:54.840Z,77.98
2023-04-05T07:38:21.817Z,76.40
2023-04-05T07:40:49.949Z,73.46
2023-04-05T07:43:17.274Z,73.46
2023-04-05T07:45:44.109Z,73.35
2023-04-05T07:48:11.036Z,72.33
2023-04-05T07:50:40.599Z,72.13
2023-04-05T07:53:08.245Z,67.70
2023-04-05T07:55:38.038Z,64.60
2023-04-05T07:58:04.650Z,62.94
2023-04-05T08:00:31.529Z,62.94
2023-04-05T08:03:01.859Z,65.17
2023-04-05T08:05:29.463Z,66.32
2023-04-05T08:07:58.164Z,63.01
2023-04-05T08:10:25.699Z,63.81
2023-04-05T08:12:52.455Z,63.03
2023-04-05T08:15:19.116Z,63.67
2023-04-05T08:17:45.760Z,63.48
2023-04-05T08:20:12.949Z,61.76
2023-04-05T08:22:39.536Z,63.12
2023-04-05T08:25:06.944Z,62.32
2023-04-05T08:27:33.524Z,61.23
2023-04-05T08:30:00.184Z,60.91
2023-04-05T08:32:26.875Z,57.05
2023-04-05T08:34:53.579Z,55.05
2023-04-05T08:37:20.175Z,57.40
2023-04-05T08:39:46.798Z,57.31
2023-04-05T08:42:19.029Z,53.14
2023-04-05T08:44:47.031Z,55.58
2023-04-05T08:47:19.119Z,49.94
2023-04-05T08:49:46.202Z,49.83
2023-04-05T08:52:13.017Z,48.49
2023-04-05T08:54:39.937Z,52.28
2023-04-05T08:57:08.158Z,50.06
2023-04-05T08:59:38.545Z,52.19
2023-04-05T09:02:14.535Z,48.90
2023-04-05T09:04:46.691Z,48.79
2023-04-05T09:07:17.628Z,46.27
2023-04-05T09:09:49.507Z,49.50
2023-04-05T09:12:16.154Z,45.99
2023-04-05T09:14:43.954Z,45.20
2023-04-05T09:17:11.342Z,46.67
2023-04-05T09:19:38.154Z,47.99
2023-04-05T09:22:06.604Z,48.22
2023-04-05T09:24:41.931Z,49.72
2023-04-05T09:27:12.718Z,48.63
2023-04-05T09:29:41.077Z,47.07
2023-04-05T09:32:09.212Z,46.73
2023-04-05T09:34:39.206Z,48.28
2023-04-05T09:37:14.192Z,49.40
2023-04-05T09:39:40.957Z,46.90
2023-04-05T09:42:13.115Z,46.54
2023-04-05T09:44:52.012Z,46.17
2023-04-05T09:47:20.514Z,46.84
2023-04-05T09:49:47.396Z,46.83
2023-04-05T09:52:20.046Z,44.66
2023-04-05T09:54:46.933Z,43.94
2023-04-05T09:57:15.583Z,45.40
2023-04-05T09:59:42.336Z,45.99
2023-04-05T10:02:11.696Z,44.87
2023-04-05T10:04:45.820Z,45.65
2023-04-05T10:07:15.482Z,45.27
2023-04-05T10:09:44.008Z,45.50
2023-04-05T10:12:14.996Z,45.41
2023-04-05T10:14:41.582Z,45.18
2023-04-05T10:17:29.899Z,45.28
2023-04-05T10:20:16.073Z,44.07
2023-04-05T10:22:51.871Z,44.32
2023-04-05T10:25:21.440Z,43.75
2023-04-05T10:27:52.193Z,44.29
2023-04-05T10:30:19.089Z,45.14
2023-04-05T10:33:10.602Z,46.20
2023-04-05T10:35:40.479Z,45.21
2023-04-05T10:38:23.256Z,43.91
2023-04-05T10:40:57.434Z,44.42
2023-04-05T10:43:27.257Z,44.39
2023-04-05T10:45:55.779Z,46.03
2023-04-05T10:48:49.223Z,44.97
2023-04-05T10:51:16.494Z,45.29
2023-04-05T10:53:46.396Z,44.75
2023-04-05T10:56:14.228Z,44.43
2023-04-05T10:58:43.101Z,43.54
2023-04-05T11:01:10.686Z,43.36
2023-04-05T11:03:54.497Z,43.29
2023-04-05T11:06:22.886Z,42.76
2023-04-05T11:08:53.733Z,43.05
2023-04-05T11:11:22.990Z,42.17
2023-04-05T11:13:51.115Z,42.79
2023-04-05T11:16:17.831Z,42.57
2023-04-05T11:18:47.201Z,42.07
2023-04-05T11:21:21.891Z,41.96
2023-04-05T11:24:07.666Z,40.98
2023-04-05T11:26:54.500Z,41.28
2023-04-05T11:29:51.056Z,41.37
2023-04-05T11:32:18.045Z,41.00
2023-04-05T11:34:45.292Z,43.32
2023-04-05T11:37:15.731Z,44.79
2023-04-05T11:39:42.375Z,41.48
2023-04-05T11:42:12.590Z,41.37
2023-04-05T11:44:48.294Z,40.27
2023-04-05T11:47:23.024Z,39.56
2023-04-05T11:49:51.250Z,39.72
2023-04-05T11:52:21.283Z,39.82
2023-04-05T11:54:49.295Z,40.49
2023-04-05T11:57:24.050Z,41.46
2023-04-05T11:59:52.183Z,41.30
2023-04-05T12:02:19.484Z,39.68
2023-04-05T12:04:54.179Z,39.71
2023-04-05T12:07:21.065Z,42.28
2023-04-05T12:10:01.913Z,37.33
2023-04-05T12:12:33.347Z,38.21
2023-04-05T12:15:01.563Z,38.10
2023-04-05T12:17:51.129Z,37.76
2023-04-05T12:20:25.050Z,39.46
2023-04-05T12:22:53.894Z,37.64
2023-04-05T12:25:21.269Z,38.12
2023-04-05T12:27:48.113Z,38.12
2023-04-05T12:30:16.541Z,38.63
2023-04-05T12:32:45.041Z,33.48
2023-04-05T12:35:24.403Z,34.69
2023-04-05T12:37:51.154Z,33.90
2023-04-05T12:40:23.134Z,38.13
2023-04-05T12:42:50.540Z,39.84
2023-04-05T12:45:18.615Z,35.02
2023-04-05T12:47:56.354Z,37.43
2023-04-05T12:50:28.912Z,40.01
2023-04-05T12:52:57.407Z,35.88
2023-04-05T12:55:24.857Z,35.83
2023-04-05T12:58:04.833Z,37.97
2023-04-05T13:00:32.797Z,32.77
2023-04-05T13:02:59.977Z,32.12
2023-04-05T13:05:28.876Z,32.50
2023-04-05T13:07:56.116Z,33.16
2023-04-05T13:10:24.807Z,32.96
2023-04-05T13:12:51.536Z,38.35
2023-04-05T13:15:18.678Z,37.58
2023-04-05T13:17:45.840Z,32.34
2023-04-05T13:20:12.666Z,32.50
2023-04-05T13:22:39.708Z,36.74
2023-04-05T13:25:06.621Z,35.17
2023-04-05T13:27:33.316Z,34.54
2023-04-05T13:30:00.329Z,37.72
2023-04-05T13:32:27.520Z,31.75
2023-04-05T13:34:54.123Z,32.09
2023-04-05T13:37:20.866Z,31.83
2023-04-05T13:39:47.458Z,37.92
2023-04-05T13:42:14.129Z,35.21
2023-04-05T13:44:40.876Z,35.61
2023-04-05T13:47:07.721Z,36.46
2023-04-05T13:49:34.474Z,37.15
2023-04-05T13:52:01.218Z,36.25
2023-04-05T13:54:27.861Z,35.87
2023-04-05T13:56:54.591Z,36.26
2023-04-05T13:59:21.380Z,32.62
2023-04-05T14:01:49.507Z,31.41
2023-04-05T14:04:16.671Z,34.50
2023-04-05T14:06:44.837Z,34.83
2023-04-05T14:09:11.656Z,32.88
2023-04-05T14:11:38.895Z,31.45
2023-04-05T14:14:05.687Z,35.08
2023-04-05T14:16:32.513Z,33.28
2023-04-05T14:18:59.246Z,33.77
2023-04-05T14:21:26.477Z,33.05
2023-04-05T14:23:56.996Z,33.37
2023-04-05T14:26:26.260Z,31.97
2023-04-05T14:28:53.881Z,31.04
2023-04-05T14:31:20.838Z,31.52
2023-04-05T14:33:47.545Z,30.97
2023-04-05T14:36:14.206Z,31.88
2023-04-05T14:38:40.917Z,32.06
2023-04-05T14:41:08.546Z,34.40
2023-04-05T14:43:35.659Z,34.46
2023-04-05T14:46:02.453Z,32.47
2023-04-05T14:48:30.387Z,34.30
2023-04-05T14:50:57.236Z,33.37
2023-04-05T14:53:23.924Z,33.21
2023-04-05T14:55:50.787Z,33.37
2023-04-05T14:58:17.493Z,32.21
2023-04-05T15:00:44.909Z,32.30
2023-04-05T15:03:11.911Z,33.09
2023-04-05T15:05:38.829Z,32.72
2023-04-05T15:08:05.797Z,33.41
2023-04-05T15:10:33.787Z,32.22
2023-04-05T15:13:00.489Z,30.26
2023-04-05T15:15:27.246Z,31.37
2023-04-05T15:17:53.980Z,32.58
2023-04-05T15:20:20.699Z,32.63
2023-04-05T15:22:47.490Z,33.08
2023-04-05T15:25:14.204Z,33.06
2023-04-05T15:27:41.040Z,33.53
2023-04-05T15:30:08.565Z,33.55
2023-04-05T15:32:35.411Z,34.06
2023-04-05T15:35:02.913Z,34.04
2023-04-05T15:37:29.577Z,33.91
2023-04-05T15:39:56.312Z,34.46
2023-04-05T15:42:23.158Z,33.48
2023-04-05T15:44:51.205Z,34.09
2023-04-05T15:47:18.486Z,34.35
2023-04-05T15:49:45.428Z,34.01
2023-04-05T15:52:12.164Z,34.10
2023-04-05T15:54:38.829Z,34.46
2023-04-05T15:57:05.533Z,34.55
2023-04-05T15:59:32.241Z,33.55
2023-04-05T16:01:59.082Z,34.60
2023-04-05T16:04:27.916Z,34.95
2023-04-05T16:06:55.104Z,35.07
2023-04-05T16:09:22.126Z,34.98
2023-04-05T16:11:49.215Z,34.64
2023-04-05T16:14:16.045Z,34.77
2023-04-05T16:16:53.199Z,35.10
2023-04-05T16:19:23.478Z,34.39
2023-04-05T16:21:51.093Z,34.53
2023-04-05T16:24:17.813Z,35.18
2023-04-05T16:26:44.474Z,36.06
2023-04-05T16:29:11.135Z,36.71
2023-04-05T16:31:38.329Z,37.01
2023-04-05T16:34:04.989Z,37.36
2023-04-05T16:36:31.773Z,37.89
2023-04-05T16:38:58.393Z,38.85
2023-04-05T16:41:25.256Z,38.68
2023-04-05T16:43:52.362Z,38.94
2023-04-05T16:46:19.186Z,39.19
2023-04-05T16:48:46.250Z,39.49
2023-04-05T16:51:13.203Z,39.47
2023-04-05T16:53:39.939Z,39.71
2023-04-05T16:56:06.783Z,39.36
2023-04-05T16:58:33.565Z,39.93
2023-04-05T17:01:00.662Z,40.64
2023-04-05T17:03:27.503Z,40.89
2023-04-05T17:05:54.341Z,41.60
2023-04-05T17:08:21.056Z,40.96
2023-04-05T17:10:47.836Z,41.77
2023-04-05T17:13:18.183Z,41.05
2023-04-05T17:15:45.209Z,41.43
2023-04-05T17:18:12.330Z,41.94
2023-04-05T17:20:39.170Z,41.79
2023-04-05T17:23:05.972Z,42.15
2023-04-05T17:25:32.754Z,42.55
2023-04-05T17:27:59.494Z,42.80
2023-04-05T17:30:26.374Z,43.14
2023-04-05T17:32:53.508Z,42.56
2023-04-05T17:35:20.623Z,43.16
2023-04-05T17:37:47.797Z,43.17
2023-04-05T17:40:15.188Z,42.95
2023-04-05T17:42:42.218Z,43.66
2023-04-05T17:45:09.277Z,44.18
2023-04-05T17:47:36.320Z,44.14
2023-04-05T17:50:03.135Z,44.27
2023-04-05T17:52:29.944Z,44.38
2023-04-05T17:54:56.642Z,44.46
2023-04-05T17:57:23.557Z,45.10
2023-04-05T17:59:50.338Z,45.44
2023-04-05T18:02:17.061Z,45.17
2023-04-05T18:04:44.430Z,46.05
2023-04-05T18:07:12.929Z,45.35
2023-04-05T18:09:42.047Z,45.87
2023-04-05T18:12:09.463Z,46.08
2023-04-05T18:14:39.049Z,46.50
2023-04-05T18:17:11.859Z,46.37
2023-04-05T18:19:38.576Z,46.63
2023-04-05T18:22:05.481Z,46.48
2023-04-05T18:24:32.524Z,46.88
2023-04-05T18:26:59.216Z,47.16
2023-04-05T18:29:29.417Z,47.47
2023-04-05T18:31:56.723Z,47.51
2023-04-05T18:34:24.084Z,47.81
2023-04-05T18:36:51.381Z,48.38
2023-04-05T18:39:20.136Z,48.64
2023-04-05T18:41:47.368Z,48.67
2023-04-05T18:44:14.150Z,49.18
2023-04-05T18:46:41.294Z,49.10
2023-04-05T18:49:08.350Z,49.36
2023-04-05T18:51:35.470Z,49.26
2023-04-05T18:54:03.262Z,49.19
2023-04-05T18:56:30.098Z,49.80
2023-04-05T18:58:56.947Z,50.53
2023-04-05T19:01:23.809Z,50.90
2023-04-05T19:03:51.053Z,51.34
2023-04-05T19:06:17.964Z,51.58
2023-04-05T19:08:44.747Z,51.86
2023-04-05T19:11:13.744Z,51.71
2023-04-05T19:13:43.998Z,52.13
2023-04-05T19:16:10.918Z,52.47
2023-04-05T19:18:37.950Z,52.98
2023-04-05T19:21:05.203Z,52.99
2023-04-05T19:23:32.690Z,52.98
2023-04-05T19:25:59.398Z,53.12
2023-04-05T19:28:27.295Z,52.78
2023-04-05T19:30:54.691Z,53.09
2023-04-05T19:33:21.997Z,53.08
2023-04-05T19:35:48.972Z,53.26
2023-04-05T19:38:15.880Z,53.69
2023-04-05T19:40:42.884Z,53.35
2023-04-05T19:43:10.178Z,53.31
2023-04-05T19:46:11.673Z,53.29
2023-04-05T19:48:41.217Z,53.71
2023-04-05T19:51:11.965Z,54.35
2023-04-05T19:53:44.428Z,53.29
2023-04-05T19:56:15.173Z,54.27
2023-04-05T19:58:42.540Z,54.10
2023-04-05T20:01:09.559Z,54.71
2023-04-05T20:03:41.369Z,54.33
2023-04-05T20:06:11.289Z,54.87
2023-04-05T20:08:40.752Z,54.33
2023-04-05T20:11:17.847Z,54.72
2023-04-05T20:13:47.938Z,54.71
2023-04-05T20:16:15.986Z,55.28
2023-04-05T20:18:49.402Z,55.02
2023-04-05T20:21:16.567Z,54.65
2023-04-05T20:23:44.584Z,56.11
2023-04-05T20:26:16.100Z,57.35
2023-04-05T20:28:54.232Z,56.68
2023-04-05T20:31:22.545Z,56.85
2023-04-05T20:33:57.074Z,56.38
2023-04-05T20:36:34.836Z,56.54
2023-04-05T20:39:03.610Z,57.33
2023-04-05T20:41:31.467Z,57.95
2023-04-05T20:43:59.278Z,56.94
2023-04-05T20:46:26.315Z,57.71
2023-04-05T20:48:54.235Z,57.70
2023-04-05T20:51:21.049Z,58.29
2023-04-05T20:53:48.367Z,58.95
2023-04-05T20:56:15.078Z,58.76
2023-04-05T20:58:42.105Z,59.03
2023-04-05T21:01:09.833Z,58.43
2023-04-05T21:03:39.790Z,59.65
2023-04-05T21:06:08.491Z,60.78
2023-04-05T21:08:36.641Z,60.26
2023-04-05T21:11:03.999Z,60.01
2023-04-05T21:13:30.773Z,59.91
2023-04-05T21:15:58.349Z,59.55
2023-04-05T21:18:25.605Z,59.93
2023-04-05T21:20:53.978Z,60.86
2023-04-05T21:23:23.559Z,61.34
2023-04-05T21:25:50.410Z,62.68
2023-04-05T21:28:17.265Z,62.54
2023-04-05T21:30:44.240Z,61.99
2023-04-05T21:33:11.394Z,62.55
2023-04-05T21:35:38.307Z,62.56
2023-04-05T21:38:05.644Z,63.20
2023-04-05T21:40:32.590Z,63.65
2023-04-05T21:43:00.139Z,63.03
2023-04-05T21:45:27.588Z,63.04
2023-04-05T21:47:54.506Z,63.77
2023-04-05T21:50:21.824Z,63.14
2023-04-05T21:52:48.657Z,64.12
2023-04-05T21:55:15.930Z,63.52
2023-04-05T21:57:42.553Z,63.43
2023-04-05T22:00:12.797Z,63.73
2023-04-05T22:02:39.746Z,63.61
2023-04-05T22:05:07.855Z,62.68
2023-04-05T22:07:35.708Z,62.94
2023-04-05T22:10:03.757Z,63.33
2023-04-05T22:12:30.762Z,64.21
2023-04-05T22:14:57.472Z,63.72
2023-04-05T22:17:24.341Z,63.47
2023-04-05T22:19:51.100Z,63.71
2023-04-05T22:22:17.934Z,64.65
2023-04-05T22:24:45.101Z,65.29
2023-04-05T22:27:12.356Z,64.98
2023-04-05T22:29:39.550Z,65.33
2023-04-05T22:32:06.558Z,65.48
2023-04-05T22:34:33.306Z,67.95
2023-04-05T22:37:00.576Z,66.76
2023-04-05T22:39:27.842Z,67.64
2023-04-05T22:41:54.904Z,66.86
2023-04-05T22:44:22.053Z,67.49
2023-04-05T22:46:48.847Z,68.64
2023-04-05T22:49:15.518Z,67.98
2023-04-05T22:51:42.334Z,67.51
2023-04-05T22:54:09.043Z,69.36
2023-04-05T22:56:36.034Z,69.70
2023-04-05T22:59:02.795Z,70.80
2023-04-05T23:01:29.583Z,70.57
2023-04-05T23:03:56.594Z,71.30
2023-04-05T23:06:23.281Z,70.74
2023-04-05T23:08:50.023Z,69.78
2023-04-05T23:11:16.719Z,69.98
2023-04-05T23:13:43.432Z,69.12
2023-04-05T23:16:10.293Z,69.71
2023-04-05T23:18:37.070Z,70.36
2023-04-05T23:21:03.917Z,69.73
2023-04-05T23:23:30.750Z,69.01
2023-04-05T23:25:57.728Z,70.82
2023-04-05T23:28:24.493Z,71.16
2023-04-05T23:30:51.198Z,71.14
2023-04-05T23:33:17.848Z,71.75
2023-04-05T23:35:44.589Z,71.22
2023-04-05T23:38:11.550Z,71.86
2023-04-05T23:40:38.289Z,71.32
2023-04-05T23:43:05.000Z,71.54
2023-04-05T23:45:32.601Z,71.45
2023-04-05T23:47:59.325Z,72.32
2023-04-05T23:50:26.278Z,72.94
2023-04-05T23:52:53.140Z,73.57
2023-04-05T23:55:21.521Z,73.11
2023-04-05T23:57:48.330Z,72.50
